sensor_id;sensor_type;location;lat;lon;timestamp;P1;durP1;ratioP1;P2;durP2;ratioP2
40669;SDS011;26355;45.528;9.234;2023-07-02T00:01:03;24.55;;;17.88;;
40669;SDS011;26355;45.528;9.234;2023-07-02T00:03:28;25.25;;;18.65;;
40669;SDS011;26355;45.528;9.234;2023-07-02T00:05:54;24.50;;;18.50;;
40669;SDS011;26355;45.528;9.234;2023-07-02T00:08:21;22.65;;;17.13;;
40669;SDS011;26355;45.528;9.234;2023-07-02T00:10:47;25.02;;;19.10;;
40669;SDS011;26355;45.528;9.234;2023-07-02T00:13:13;24.08;;;18.60;;
40669;SDS011;26355;45.528;9.234;2023-07-02T00:15:40;25.83;;;19.92;;
40669;SDS011;26355;45.528;9.234;2023-07-02T00:18:05;24.35;;;18.75;;
40669;SDS011;26355;45.528;9.234;2023-07-02T00:20:31;26.33;;;18.35;;
40669;SDS011;26355;45.528;9.234;2023-07-02T00:23:02;25.40;;;20.00;;
40669;SDS011;26355;45.528;9.234;2023-07-02T00:25:28;26.08;;;19.63;;
40669;SDS011;26355;45.528;9.234;2023-07-02T00:27:54;24.95;;;19.40;;
40669;SDS011;26355;45.528;9.234;2023-07-02T00:30:19;25.30;;;18.17;;
40669;SDS011;26355;45.528;9.234;2023-07-02T00:32:45;23.02;;;17.25;;
40669;SDS011;26355;45.528;9.234;2023-07-02T00:35:11;24.08;;;18.70;;
40669;SDS011;26355;45.528;9.234;2023-07-02T00:37:36;25.50;;;18.45;;
40669;SDS011;26355;45.528;9.234;2023-07-02T00:40:02;25.00;;;18.08;;
40669;SDS011;26355;45.528;9.234;2023-07-02T00:42:28;26.25;;;19.73;;
40669;SDS011;26355;45.528;9.234;2023-07-02T00:44:55;26.00;;;18.70;;
40669;SDS011;26355;45.528;9.234;2023-07-02T00:47:22;25.05;;;18.80;;
40669;SDS011;26355;45.528;9.234;2023-07-02T00:49:48;29.10;;;20.63;;
40669;SDS011;26355;45.528;9.234;2023-07-02T00:52:13;26.13;;;19.13;;
40669;SDS011;26355;45.528;9.234;2023-07-02T00:54:40;25.67;;;17.92;;
40669;SDS011;26355;45.528;9.234;2023-07-02T00:57:05;26.08;;;18.48;;
40669;SDS011;26355;45.528;9.234;2023-07-02T00:59:32;26.15;;;18.98;;
40669;SDS011;26355;45.528;9.234;2023-07-02T01:02:00;25.70;;;18.20;;
40669;SDS011;26355;45.528;9.234;2023-07-02T01:04:26;27.42;;;19.90;;
40669;SDS011;26355;45.528;9.234;2023-07-02T01:06:52;27.27;;;18.55;;
40669;SDS011;26355;45.528;9.234;2023-07-02T01:09:22;25.95;;;18.50;;
40669;SDS011;26355;45.528;9.234;2023-07-02T01:11:58;25.53;;;19.10;;
40669;SDS011;26355;45.528;9.234;2023-07-02T01:16:57;26.17;;;18.63;;
40669;SDS011;26355;45.528;9.234;2023-07-02T01:22:33;27.45;;;19.52;;
40669;SDS011;26355;45.528;9.234;2023-07-02T01:24:59;28.17;;;20.80;;
40669;SDS011;26355;45.528;9.234;2023-07-02T01:27:27;27.63;;;21.00;;
40669;SDS011;26355;45.528;9.234;2023-07-02T01:29:54;27.73;;;20.00;;
40669;SDS011;26355;45.528;9.234;2023-07-02T01:32:20;26.35;;;19.90;;
40669;SDS011;26355;45.528;9.234;2023-07-02T01:34:47;27.20;;;19.67;;
40669;SDS011;26355;45.528;9.234;2023-07-02T01:37:13;26.52;;;19.00;;
40669;SDS011;26355;45.528;9.234;2023-07-02T01:39:39;24.80;;;17.80;;
40669;SDS011;26355;45.528;9.234;2023-07-02T01:42:09;25.48;;;17.75;;
40669;SDS011;26355;45.528;9.234;2023-07-02T01:44:36;24.98;;;17.05;;
40669;SDS011;26355;45.528;9.234;2023-07-02T01:47:02;23.73;;;16.10;;
40669;SDS011;26355;45.528;9.234;2023-07-02T01:49:28;24.08;;;16.42;;
40669;SDS011;26355;45.528;9.234;2023-07-02T01:51:54;25.13;;;16.23;;
40669;SDS011;26355;45.528;9.234;2023-07-02T01:54:22;23.48;;;16.20;;
40669;SDS011;26355;45.528;9.234;2023-07-02T01:56:49;22.50;;;14.93;;
40669;SDS011;26355;45.528;9.234;2023-07-02T01:59:15;22.38;;;14.20;;
40669;SDS011;26355;45.528;9.234;2023-07-02T02:01:41;23.75;;;15.60;;
40669;SDS011;26355;45.528;9.234;2023-07-02T02:04:07;22.15;;;14.38;;
40669;SDS011;26355;45.528;9.234;2023-07-02T02:06:34;22.73;;;14.88;;
40669;SDS011;26355;45.528;9.234;2023-07-02T02:09:00;25.30;;;14.45;;
40669;SDS011;26355;45.528;9.234;2023-07-02T02:11:26;22.08;;;14.02;;
40669;SDS011;26355;45.528;9.234;2023-07-02T02:13:51;24.17;;;14.88;;
40669;SDS011;26355;45.528;9.234;2023-07-02T02:16:17;23.08;;;14.32;;
40669;SDS011;26355;45.528;9.234;2023-07-02T02:18:42;23.30;;;15.52;;
40669;SDS011;26355;45.528;9.234;2023-07-02T02:21:08;22.80;;;14.57;;
40669;SDS011;26355;45.528;9.234;2023-07-02T02:23:34;25.50;;;15.63;;
40669;SDS011;26355;45.528;9.234;2023-07-02T02:26:00;23.52;;;15.32;;
40669;SDS011;26355;45.528;9.234;2023-07-02T02:28:25;22.55;;;14.50;;
40669;SDS011;26355;45.528;9.234;2023-07-02T02:30:51;22.88;;;14.70;;
40669;SDS011;26355;45.528;9.234;2023-07-02T02:33:16;24.15;;;15.07;;
40669;SDS011;26355;45.528;9.234;2023-07-02T02:35:42;24.35;;;16.05;;
40669;SDS011;26355;45.528;9.234;2023-07-02T02:38:08;23.80;;;15.30;;
40669;SDS011;26355;45.528;9.234;2023-07-02T02:40:33;23.67;;;15.57;;
40669;SDS011;26355;45.528;9.234;2023-07-02T02:42:59;23.70;;;15.45;;
40669;SDS011;26355;45.528;9.234;2023-07-02T02:45:25;24.92;;;16.35;;
40669;SDS011;26355;45.528;9.234;2023-07-02T02:47:51;24.05;;;15.65;;
40669;SDS011;26355;45.528;9.234;2023-07-02T02:50:16;23.15;;;15.10;;
40669;SDS011;26355;45.528;9.234;2023-07-02T02:52:42;25.02;;;15.45;;
40669;SDS011;26355;45.528;9.234;2023-07-02T02:55:08;24.73;;;16.08;;
40669;SDS011;26355;45.528;9.234;2023-07-02T02:57:35;23.80;;;15.40;;
40669;SDS011;26355;45.528;9.234;2023-07-02T03:00:01;23.48;;;15.35;;
40669;SDS011;26355;45.528;9.234;2023-07-02T03:02:27;22.87;;;13.77;;
40669;SDS011;26355;45.528;9.234;2023-07-02T03:04:53;23.60;;;15.30;;
40669;SDS011;26355;45.528;9.234;2023-07-02T03:07:19;22.02;;;14.00;;
40669;SDS011;26355;45.528;9.234;2023-07-02T03:09:45;23.40;;;13.32;;
40669;SDS011;26355;45.528;9.234;2023-07-02T03:12:10;20.75;;;11.95;;
40669;SDS011;26355;45.528;9.234;2023-07-02T03:14:36;20.70;;;12.88;;
40669;SDS011;26355;45.528;9.234;2023-07-02T03:17:02;21.13;;;12.73;;
40669;SDS011;26355;45.528;9.234;2023-07-02T03:19:28;23.10;;;13.10;;
40669;SDS011;26355;45.528;9.234;2023-07-02T03:21:53;22.63;;;13.00;;
40669;SDS011;26355;45.528;9.234;2023-07-02T03:24:19;21.77;;;12.75;;
40669;SDS011;26355;45.528;9.234;2023-07-02T03:26:45;22.92;;;13.07;;
40669;SDS011;26355;45.528;9.234;2023-07-02T03:29:10;20.95;;;12.30;;
40669;SDS011;26355;45.528;9.234;2023-07-02T03:31:36;21.20;;;12.65;;
40669;SDS011;26355;45.528;9.234;2023-07-02T03:34:03;23.67;;;12.38;;
40669;SDS011;26355;45.528;9.234;2023-07-02T03:36:31;19.95;;;11.38;;
40669;SDS011;26355;45.528;9.234;2023-07-02T03:38:56;20.17;;;11.68;;
40669;SDS011;26355;45.528;9.234;2023-07-02T03:41:22;18.98;;;10.88;;
40669;SDS011;26355;45.528;9.234;2023-07-02T03:43:48;21.48;;;12.30;;
40669;SDS011;26355;45.528;9.234;2023-07-02T03:46:13;19.83;;;11.50;;
40669;SDS011;26355;45.528;9.234;2023-07-02T03:48:39;20.60;;;11.27;;
40669;SDS011;26355;45.528;9.234;2023-07-02T03:51:05;20.75;;;11.30;;
40669;SDS011;26355;45.528;9.234;2023-07-02T03:53:31;20.73;;;11.80;;
40669;SDS011;26355;45.528;9.234;2023-07-02T03:55:57;21.88;;;11.07;;
40669;SDS011;26355;45.528;9.234;2023-07-02T03:58:22;22.30;;;11.95;;
40669;SDS011;26355;45.528;9.234;2023-07-02T04:00:48;20.08;;;12.55;;
40669;SDS011;26355;45.528;9.234;2023-07-02T04:03:16;22.40;;;11.60;;
40669;SDS011;26355;45.528;9.234;2023-07-02T04:05:43;19.48;;;10.45;;
40669;SDS011;26355;45.528;9.234;2023-07-02T04:08:08;19.35;;;10.80;;
40669;SDS011;26355;45.528;9.234;2023-07-02T04:10:35;23.10;;;11.13;;
40669;SDS011;26355;45.528;9.234;2023-07-02T04:13:01;22.83;;;13.00;;
40669;SDS011;26355;45.528;9.234;2023-07-02T04:15:26;22.42;;;12.05;;
40669;SDS011;26355;45.528;9.234;2023-07-02T04:17:52;21.70;;;12.82;;
40669;SDS011;26355;45.528;9.234;2023-07-02T04:20:18;21.75;;;11.80;;
40669;SDS011;26355;45.528;9.234;2023-07-02T04:22:45;22.47;;;12.60;;
40669;SDS011;26355;45.528;9.234;2023-07-02T04:25:11;22.37;;;13.13;;
40669;SDS011;26355;45.528;9.234;2023-07-02T04:27:40;21.20;;;11.98;;
40669;SDS011;26355;45.528;9.234;2023-07-02T04:30:06;21.00;;;11.43;;
40669;SDS011;26355;45.528;9.234;2023-07-02T04:32:33;20.42;;;11.55;;
40669;SDS011;26355;45.528;9.234;2023-07-02T04:34:59;20.85;;;10.55;;
40669;SDS011;26355;45.528;9.234;2023-07-02T04:37:24;20.70;;;11.40;;
40669;SDS011;26355;45.528;9.234;2023-07-02T04:39:50;20.08;;;11.13;;
40669;SDS011;26355;45.528;9.234;2023-07-02T04:42:15;20.98;;;11.02;;
40669;SDS011;26355;45.528;9.234;2023-07-02T04:44:41;22.50;;;10.85;;
40669;SDS011;26355;45.528;9.234;2023-07-02T04:47:08;19.70;;;11.00;;
40669;SDS011;26355;45.528;9.234;2023-07-02T04:49:34;20.08;;;10.95;;
40669;SDS011;26355;45.528;9.234;2023-07-02T04:51:59;22.25;;;11.38;;
40669;SDS011;26355;45.528;9.234;2023-07-02T04:54:25;21.60;;;11.90;;
40669;SDS011;26355;45.528;9.234;2023-07-02T04:56:50;20.02;;;11.93;;
40669;SDS011;26355;45.528;9.234;2023-07-02T04:59:16;22.33;;;12.07;;
40669;SDS011;26355;45.528;9.234;2023-07-02T05:01:42;22.52;;;12.57;;
40669;SDS011;26355;45.528;9.234;2023-07-02T05:09:02;22.02;;;12.65;;
40669;SDS011;26355;45.528;9.234;2023-07-02T05:11:27;22.48;;;13.40;;
40669;SDS011;26355;45.528;9.234;2023-07-02T05:13:53;22.77;;;13.52;;
40669;SDS011;26355;45.528;9.234;2023-07-02T05:16:18;21.33;;;13.23;;
40669;SDS011;26355;45.528;9.234;2023-07-02T05:18:44;23.85;;;13.93;;
40669;SDS011;26355;45.528;9.234;2023-07-02T05:21:11;24.73;;;14.05;;
40669;SDS011;26355;45.528;9.234;2023-07-02T05:26:02;23.38;;;14.30;;
40669;SDS011;26355;45.528;9.234;2023-07-02T05:28:28;25.13;;;14.77;;
40669;SDS011;26355;45.528;9.234;2023-07-02T05:30:54;24.85;;;13.68;;
40669;SDS011;26355;45.528;9.234;2023-07-02T05:33:19;22.58;;;13.85;;
40669;SDS011;26355;45.528;9.234;2023-07-02T05:35:47;24.15;;;13.48;;
40669;SDS011;26355;45.528;9.234;2023-07-02T05:38:13;24.33;;;14.50;;
40669;SDS011;26355;45.528;9.234;2023-07-02T05:40:39;22.48;;;13.80;;
40669;SDS011;26355;45.528;9.234;2023-07-02T05:43:04;23.40;;;14.57;;
40669;SDS011;26355;45.528;9.234;2023-07-02T05:45:30;23.98;;;15.65;;
40669;SDS011;26355;45.528;9.234;2023-07-02T05:47:56;24.90;;;15.57;;
40669;SDS011;26355;45.528;9.234;2023-07-02T05:50:22;25.08;;;15.85;;
40669;SDS011;26355;45.528;9.234;2023-07-02T05:52:48;25.42;;;16.02;;
40669;SDS011;26355;45.528;9.234;2023-07-02T05:55:13;24.25;;;15.27;;
40669;SDS011;26355;45.528;9.234;2023-07-02T05:57:39;25.42;;;16.17;;
40669;SDS011;26355;45.528;9.234;2023-07-02T06:00:06;26.08;;;17.33;;
40669;SDS011;26355;45.528;9.234;2023-07-02T06:02:32;24.67;;;16.25;;
40669;SDS011;26355;45.528;9.234;2023-07-02T06:04:58;25.38;;;15.88;;
40669;SDS011;26355;45.528;9.234;2023-07-02T06:07:26;27.75;;;19.08;;
40669;SDS011;26355;45.528;9.234;2023-07-02T06:09:52;26.25;;;17.92;;
40669;SDS011;26355;45.528;9.234;2023-07-02T06:12:18;24.27;;;17.05;;
40669;SDS011;26355;45.528;9.234;2023-07-02T06:14:43;26.15;;;17.88;;
40669;SDS011;26355;45.528;9.234;2023-07-02T06:17:09;28.55;;;19.65;;
40669;SDS011;26355;45.528;9.234;2023-07-02T06:19:36;29.33;;;21.33;;
40669;SDS011;26355;45.528;9.234;2023-07-02T06:22:02;28.50;;;20.38;;
40669;SDS011;26355;45.528;9.234;2023-07-02T06:24:28;31.30;;;20.80;;
40669;SDS011;26355;45.528;9.234;2023-07-02T06:26:54;30.42;;;20.90;;
40669;SDS011;26355;45.528;9.234;2023-07-02T06:29:19;28.05;;;20.50;;
40669;SDS011;26355;45.528;9.234;2023-07-02T06:31:46;28.83;;;20.65;;
40669;SDS011;26355;45.528;9.234;2023-07-02T06:34:12;29.90;;;20.90;;
40669;SDS011;26355;45.528;9.234;2023-07-02T06:36:37;29.35;;;21.13;;
40669;SDS011;26355;45.528;9.234;2023-07-02T06:39:03;31.10;;;21.25;;
40669;SDS011;26355;45.528;9.234;2023-07-02T06:41:28;31.00;;;21.40;;
40669;SDS011;26355;45.528;9.234;2023-07-02T06:43:54;29.63;;;21.33;;
40669;SDS011;26355;45.528;9.234;2023-07-02T06:46:20;30.65;;;22.58;;
40669;SDS011;26355;45.528;9.234;2023-07-02T06:48:45;31.27;;;22.48;;
40669;SDS011;26355;45.528;9.234;2023-07-02T06:51:11;30.75;;;22.30;;
40669;SDS011;26355;45.528;9.234;2023-07-02T06:53:39;32.17;;;22.92;;
40669;SDS011;26355;45.528;9.234;2023-07-02T06:56:07;30.85;;;23.33;;
40669;SDS011;26355;45.528;9.234;2023-07-02T06:58:33;29.60;;;22.52;;
40669;SDS011;26355;45.528;9.234;2023-07-02T07:00:59;32.38;;;23.63;;
40669;SDS011;26355;45.528;9.234;2023-07-02T07:03:25;33.50;;;24.33;;
40669;SDS011;26355;45.528;9.234;2023-07-02T07:05:50;31.40;;;24.50;;
40669;SDS011;26355;45.528;9.234;2023-07-02T07:08:16;31.92;;;24.90;;
40669;SDS011;26355;45.528;9.234;2023-07-02T07:10:41;31.35;;;22.88;;
40669;SDS011;26355;45.528;9.234;2023-07-02T07:13:07;32.35;;;23.33;;
40669;SDS011;26355;45.528;9.234;2023-07-02T07:15:33;31.60;;;23.23;;
40669;SDS011;26355;45.528;9.234;2023-07-02T07:18:02;29.45;;;20.45;;
40669;SDS011;26355;45.528;9.234;2023-07-02T07:20:28;29.80;;;20.90;;
40669;SDS011;26355;45.528;9.234;2023-07-02T07:22:54;29.23;;;19.13;;
40669;SDS011;26355;45.528;9.234;2023-07-02T07:25:20;27.27;;;20.27;;
40669;SDS011;26355;45.528;9.234;2023-07-02T07:27:46;29.65;;;20.95;;
40669;SDS011;26355;45.528;9.234;2023-07-02T07:30:11;29.02;;;21.33;;
40669;SDS011;26355;45.528;9.234;2023-07-02T07:32:37;28.58;;;19.83;;
40669;SDS011;26355;45.528;9.234;2023-07-02T07:35:03;30.33;;;19.55;;
40669;SDS011;26355;45.528;9.234;2023-07-02T07:37:29;29.77;;;20.30;;
40669;SDS011;26355;45.528;9.234;2023-07-02T07:39:54;31.35;;;23.50;;
40669;SDS011;26355;45.528;9.234;2023-07-02T07:42:20;28.60;;;21.63;;
40669;SDS011;26355;45.528;9.234;2023-07-02T07:44:46;31.95;;;23.40;;
40669;SDS011;26355;45.528;9.234;2023-07-02T07:47:12;29.30;;;21.85;;
40669;SDS011;26355;45.528;9.234;2023-07-02T07:49:37;29.75;;;22.73;;
40669;SDS011;26355;45.528;9.234;2023-07-02T07:52:03;30.98;;;23.08;;
40669;SDS011;26355;45.528;9.234;2023-07-02T07:54:31;30.75;;;22.88;;
40669;SDS011;26355;45.528;9.234;2023-07-02T07:56:57;30.85;;;22.85;;
40669;SDS011;26355;45.528;9.234;2023-07-02T07:59:23;27.23;;;19.08;;
40669;SDS011;26355;45.528;9.234;2023-07-02T08:01:48;29.25;;;20.92;;
40669;SDS011;26355;45.528;9.234;2023-07-02T08:04:14;30.90;;;22.80;;
40669;SDS011;26355;45.528;9.234;2023-07-02T08:06:40;30.50;;;22.55;;
40669;SDS011;26355;45.528;9.234;2023-07-02T08:09:05;29.17;;;21.20;;
40669;SDS011;26355;45.528;9.234;2023-07-02T08:11:31;29.10;;;21.80;;
40669;SDS011;26355;45.528;9.234;2023-07-02T08:13:57;27.20;;;19.92;;
40669;SDS011;26355;45.528;9.234;2023-07-02T08:16:22;28.45;;;19.08;;
40669;SDS011;26355;45.528;9.234;2023-07-02T08:18:48;28.05;;;20.02;;
40669;SDS011;26355;45.528;9.234;2023-07-02T08:21:13;31.52;;;22.67;;
40669;SDS011;26355;45.528;9.234;2023-07-02T08:23:39;30.20;;;22.17;;
40669;SDS011;26355;45.528;9.234;2023-07-02T08:26:07;30.83;;;23.40;;
40669;SDS011;26355;45.528;9.234;2023-07-02T08:28:32;28.98;;;21.70;;
40669;SDS011;26355;45.528;9.234;2023-07-02T08:30:58;34.30;;;25.50;;
40669;SDS011;26355;45.528;9.234;2023-07-02T08:33:24;32.47;;;25.83;;
40669;SDS011;26355;45.528;9.234;2023-07-02T08:35:49;33.17;;;25.27;;
40669;SDS011;26355;45.528;9.234;2023-07-02T08:38:15;33.35;;;25.08;;
40669;SDS011;26355;45.528;9.234;2023-07-02T08:40:41;30.15;;;23.83;;
40669;SDS011;26355;45.528;9.234;2023-07-02T08:43:06;31.60;;;24.85;;
40669;SDS011;26355;45.528;9.234;2023-07-02T08:45:32;26.20;;;17.02;;
40669;SDS011;26355;45.528;9.234;2023-07-02T08:47:58;24.10;;;13.25;;
40669;SDS011;26355;45.528;9.234;2023-07-02T08:50:24;30.15;;;20.02;;
40669;SDS011;26355;45.528;9.234;2023-07-02T08:52:49;24.77;;;16.80;;
40669;SDS011;26355;45.528;9.234;2023-07-02T08:55:15;22.02;;;14.60;;
40669;SDS011;26355;45.528;9.234;2023-07-02T08:57:42;22.40;;;13.07;;
40669;SDS011;26355;45.528;9.234;2023-07-02T09:00:14;23.17;;;13.45;;
40669;SDS011;26355;45.528;9.234;2023-07-02T09:02:40;21.60;;;12.13;;
40669;SDS011;26355;45.528;9.234;2023-07-02T09:05:06;19.88;;;9.98;;
40669;SDS011;26355;45.528;9.234;2023-07-02T09:07:31;18.08;;;9.20;;
40669;SDS011;26355;45.528;9.234;2023-07-02T09:10:08;18.55;;;9.02;;
40669;SDS011;26355;45.528;9.234;2023-07-02T09:12:33;18.92;;;8.57;;
40669;SDS011;26355;45.528;9.234;2023-07-02T09:15:03;19.13;;;8.30;;
40669;SDS011;26355;45.528;9.234;2023-07-02T09:17:35;16.67;;;6.72;;
40669;SDS011;26355;45.528;9.234;2023-07-02T09:20:03;16.77;;;6.97;;
40669;SDS011;26355;45.528;9.234;2023-07-02T09:22:33;15.75;;;6.38;;
40669;SDS011;26355;45.528;9.234;2023-07-02T09:24:59;17.30;;;6.50;;
40669;SDS011;26355;45.528;9.234;2023-07-02T09:27:39;16.25;;;6.55;;
40669;SDS011;26355;45.528;9.234;2023-07-02T09:30:07;14.90;;;5.82;;
40669;SDS011;26355;45.528;9.234;2023-07-02T09:34:59;14.80;;;5.87;;
40669;SDS011;26355;45.528;9.234;2023-07-02T09:37:25;15.38;;;6.10;;
40669;SDS011;26355;45.528;9.234;2023-07-02T09:39:51;13.65;;;5.43;;
40669;SDS011;26355;45.528;9.234;2023-07-02T09:42:20;15.10;;;5.78;;
40669;SDS011;26355;45.528;9.234;2023-07-02T09:44:46;14.20;;;5.50;;
40669;SDS011;26355;45.528;9.234;2023-07-02T09:47:12;15.15;;;5.55;;
40669;SDS011;26355;45.528;9.234;2023-07-02T09:49:40;14.30;;;5.00;;
40669;SDS011;26355;45.528;9.234;2023-07-02T09:52:08;14.18;;;4.95;;
40669;SDS011;26355;45.528;9.234;2023-07-02T09:54:36;15.27;;;5.32;;
40669;SDS011;26355;45.528;9.234;2023-07-02T09:57:02;14.35;;;4.85;;
40669;SDS011;26355;45.528;9.234;2023-07-02T09:59:29;14.27;;;4.97;;
40669;SDS011;26355;45.528;9.234;2023-07-02T10:01:55;14.45;;;5.07;;
40669;SDS011;26355;45.528;9.234;2023-07-02T10:04:21;13.65;;;5.00;;
40669;SDS011;26355;45.528;9.234;2023-07-02T10:06:54;13.18;;;4.97;;
40669;SDS011;26355;45.528;9.234;2023-07-02T10:09:21;15.20;;;5.72;;
40669;SDS011;26355;45.528;9.234;2023-07-02T10:11:59;14.88;;;5.00;;
40669;SDS011;26355;45.528;9.234;2023-07-02T10:14:25;13.10;;;4.80;;
40669;SDS011;26355;45.528;9.234;2023-07-02T10:16:53;14.05;;;4.72;;
40669;SDS011;26355;45.528;9.234;2023-07-02T10:19:21;12.77;;;4.50;;
40669;SDS011;26355;45.528;9.234;2023-07-02T10:21:47;12.88;;;4.88;;
40669;SDS011;26355;45.528;9.234;2023-07-02T10:24:29;14.60;;;4.35;;
40669;SDS011;26355;45.528;9.234;2023-07-02T10:26:56;14.98;;;4.60;;
40669;SDS011;26355;45.528;9.234;2023-07-02T10:29:26;14.32;;;4.70;;
40669;SDS011;26355;45.528;9.234;2023-07-02T10:34:29;20.48;;;4.85;;
40669;SDS011;26355;45.528;9.234;2023-07-02T10:37:00;14.27;;;5.20;;
40669;SDS011;26355;45.528;9.234;2023-07-02T10:39:26;13.98;;;4.80;;
40669;SDS011;26355;45.528;9.234;2023-07-02T10:41:52;13.20;;;4.50;;
40669;SDS011;26355;45.528;9.234;2023-07-02T10:44:17;13.38;;;4.82;;
40669;SDS011;26355;45.528;9.234;2023-07-02T10:46:46;14.73;;;5.20;;
40669;SDS011;26355;45.528;9.234;2023-07-02T10:49:13;13.05;;;4.60;;
40669;SDS011;26355;45.528;9.234;2023-07-02T10:51:39;14.45;;;5.13;;
40669;SDS011;26355;45.528;9.234;2023-07-02T10:54:05;12.70;;;4.85;;
40669;SDS011;26355;45.528;9.234;2023-07-02T10:56:32;13.80;;;5.60;;
40669;SDS011;26355;45.528;9.234;2023-07-02T10:58:57;12.55;;;4.72;;
40669;SDS011;26355;45.528;9.234;2023-07-02T11:03:59;14.75;;;5.20;;
40669;SDS011;26355;45.528;9.234;2023-07-02T11:06:30;13.55;;;4.60;;
40669;SDS011;26355;45.528;9.234;2023-07-02T11:08:58;13.25;;;4.72;;
40669;SDS011;26355;45.528;9.234;2023-07-02T11:11:24;12.77;;;4.65;;
40669;SDS011;26355;45.528;9.234;2023-07-02T11:13:51;12.70;;;4.33;;
40669;SDS011;26355;45.528;9.234;2023-07-02T11:16:27;13.68;;;4.78;;
40669;SDS011;26355;45.528;9.234;2023-07-02T11:19:05;14.85;;;4.75;;
40669;SDS011;26355;45.528;9.234;2023-07-02T11:21:33;15.02;;;5.05;;
40669;SDS011;26355;45.528;9.234;2023-07-02T11:24:05;13.85;;;5.15;;
40669;SDS011;26355;45.528;9.234;2023-07-02T11:26:39;12.60;;;4.85;;
40669;SDS011;26355;45.528;9.234;2023-07-02T11:29:11;13.70;;;4.75;;
40669;SDS011;26355;45.528;9.234;2023-07-02T11:31:37;14.68;;;5.07;;
40669;SDS011;26355;45.528;9.234;2023-07-02T11:34:16;13.77;;;5.22;;
40669;SDS011;26355;45.528;9.234;2023-07-02T11:36:45;13.00;;;4.97;;
40669;SDS011;26355;45.528;9.234;2023-07-02T11:39:11;14.15;;;4.30;;
40669;SDS011;26355;45.528;9.234;2023-07-02T11:41:43;13.38;;;4.93;;
40669;SDS011;26355;45.528;9.234;2023-07-02T11:44:10;13.13;;;4.85;;
40669;SDS011;26355;45.528;9.234;2023-07-02T11:46:36;14.40;;;5.13;;
40669;SDS011;26355;45.528;9.234;2023-07-02T11:49:02;14.95;;;5.03;;
40669;SDS011;26355;45.528;9.234;2023-07-02T11:51:30;14.35;;;5.30;;
40669;SDS011;26355;45.528;9.234;2023-07-02T11:53:56;14.38;;;5.63;;
40669;SDS011;26355;45.528;9.234;2023-07-02T11:56:22;14.07;;;4.95;;
40669;SDS011;26355;45.528;9.234;2023-07-02T11:58:48;12.60;;;5.13;;
40669;SDS011;26355;45.528;9.234;2023-07-02T12:01:14;13.75;;;5.05;;
40669;SDS011;26355;45.528;9.234;2023-07-02T12:03:40;13.60;;;4.82;;
40669;SDS011;26355;45.528;9.234;2023-07-02T12:06:05;13.88;;;5.05;;
40669;SDS011;26355;45.528;9.234;2023-07-02T12:08:31;12.52;;;4.57;;
40669;SDS011;26355;45.528;9.234;2023-07-02T12:10:56;14.55;;;5.68;;
40669;SDS011;26355;45.528;9.234;2023-07-02T12:13:22;13.13;;;5.07;;
40669;SDS011;26355;45.528;9.234;2023-07-02T12:15:47;12.52;;;4.85;;
40669;SDS011;26355;45.528;9.234;2023-07-02T12:18:14;13.73;;;5.10;;
40669;SDS011;26355;45.528;9.234;2023-07-02T12:20:40;12.98;;;4.82;;
40669;SDS011;26355;45.528;9.234;2023-07-02T12:23:05;14.82;;;5.75;;
40669;SDS011;26355;45.528;9.234;2023-07-02T12:25:31;14.15;;;5.13;;
40669;SDS011;26355;45.528;9.234;2023-07-02T12:27:57;13.98;;;4.75;;
40669;SDS011;26355;45.528;9.234;2023-07-02T12:30:22;14.38;;;5.00;;
40669;SDS011;26355;45.528;9.234;2023-07-02T12:32:48;13.07;;;5.00;;
40669;SDS011;26355;45.528;9.234;2023-07-02T12:35:13;12.82;;;4.80;;
40669;SDS011;26355;45.528;9.234;2023-07-02T12:37:43;12.63;;;4.70;;
40669;SDS011;26355;45.528;9.234;2023-07-02T12:40:10;13.55;;;5.00;;
40669;SDS011;26355;45.528;9.234;2023-07-02T12:42:36;13.18;;;5.10;;
40669;SDS011;26355;45.528;9.234;2023-07-02T12:45:01;13.18;;;5.07;;
40669;SDS011;26355;45.528;9.234;2023-07-02T12:47:27;13.07;;;4.82;;
40669;SDS011;26355;45.528;9.234;2023-07-02T12:49:52;13.45;;;5.10;;
40669;SDS011;26355;45.528;9.234;2023-07-02T12:52:18;12.13;;;4.53;;
40669;SDS011;26355;45.528;9.234;2023-07-02T12:54:43;12.63;;;5.03;;
40669;SDS011;26355;45.528;9.234;2023-07-02T12:57:09;15.18;;;5.00;;
40669;SDS011;26355;45.528;9.234;2023-07-02T12:59:35;13.45;;;4.68;;
40669;SDS011;26355;45.528;9.234;2023-07-02T13:02:00;12.48;;;4.57;;
40669;SDS011;26355;45.528;9.234;2023-07-02T13:04:26;12.02;;;4.50;;
40669;SDS011;26355;45.528;9.234;2023-07-02T13:06:51;13.52;;;5.00;;
40669;SDS011;26355;45.528;9.234;2023-07-02T13:09:17;15.02;;;5.03;;
40669;SDS011;26355;45.528;9.234;2023-07-02T13:11:43;12.70;;;4.80;;
40669;SDS011;26355;45.528;9.234;2023-07-02T13:14:08;13.60;;;4.75;;
40669;SDS011;26355;45.528;9.234;2023-07-02T13:16:34;13.02;;;4.88;;
40669;SDS011;26355;45.528;9.234;2023-07-02T13:18:59;13.65;;;4.70;;
40669;SDS011;26355;45.528;9.234;2023-07-02T13:21:26;11.55;;;4.47;;
40669;SDS011;26355;45.528;9.234;2023-07-02T13:23:52;12.68;;;4.35;;
40669;SDS011;26355;45.528;9.234;2023-07-02T13:26:18;12.07;;;3.80;;
40669;SDS011;26355;45.528;9.234;2023-07-02T13:28:44;13.82;;;4.55;;
40669;SDS011;26355;45.528;9.234;2023-07-02T13:31:12;10.52;;;4.03;;
40669;SDS011;26355;45.528;9.234;2023-07-02T13:33:38;13.10;;;4.20;;
40669;SDS011;26355;45.528;9.234;2023-07-02T13:36:04;13.10;;;4.68;;
40669;SDS011;26355;45.528;9.234;2023-07-02T13:38:30;11.40;;;3.92;;
40669;SDS011;26355;45.528;9.234;2023-07-02T13:40:56;12.95;;;4.10;;
40669;SDS011;26355;45.528;9.234;2023-07-02T13:43:22;11.35;;;3.97;;
40669;SDS011;26355;45.528;9.234;2023-07-02T13:45:48;10.32;;;3.50;;
40669;SDS011;26355;45.528;9.234;2023-07-02T13:48:14;10.95;;;3.35;;
40669;SDS011;26355;45.528;9.234;2023-07-02T13:50:39;9.20;;;3.10;;
40669;SDS011;26355;45.528;9.234;2023-07-02T13:53:05;10.95;;;3.70;;
40669;SDS011;26355;45.528;9.234;2023-07-02T13:55:30;9.23;;;3.35;;
40669;SDS011;26355;45.528;9.234;2023-07-02T13:57:56;10.23;;;3.85;;
40669;SDS011;26355;45.528;9.234;2023-07-02T14:00:22;9.18;;;3.35;;
40669;SDS011;26355;45.528;9.234;2023-07-02T14:02:49;11.85;;;4.20;;
40669;SDS011;26355;45.528;9.234;2023-07-02T14:05:14;9.43;;;3.45;;
40669;SDS011;26355;45.528;9.234;2023-07-02T14:07:50;10.70;;;3.75;;
40669;SDS011;26355;45.528;9.234;2023-07-02T14:10:16;11.27;;;3.40;;
40669;SDS011;26355;45.528;9.234;2023-07-02T14:12:42;11.35;;;3.60;;
40669;SDS011;26355;45.528;9.234;2023-07-02T14:15:08;9.95;;;3.63;;
40669;SDS011;26355;45.528;9.234;2023-07-02T14:20:00;11.73;;;3.70;;
40669;SDS011;26355;45.528;9.234;2023-07-02T14:22:26;8.55;;;3.05;;
40669;SDS011;26355;45.528;9.234;2023-07-02T14:24:52;8.02;;;2.90;;
40669;SDS011;26355;45.528;9.234;2023-07-02T14:27:17;9.32;;;3.40;;
40669;SDS011;26355;45.528;9.234;2023-07-02T14:29:44;9.85;;;3.30;;
40669;SDS011;26355;45.528;9.234;2023-07-02T14:32:12;9.70;;;2.88;;
40669;SDS011;26355;45.528;9.234;2023-07-02T14:34:38;9.57;;;3.13;;
40669;SDS011;26355;45.528;9.234;2023-07-02T14:37:04;11.55;;;3.80;;
40669;SDS011;26355;45.528;9.234;2023-07-02T14:39:30;9.85;;;3.50;;
40669;SDS011;26355;45.528;9.234;2023-07-02T14:41:56;9.40;;;3.23;;
40669;SDS011;26355;45.528;9.234;2023-07-02T14:44:22;9.90;;;3.65;;